Time;durP1;ratioP1;P1;durP2;ratioP2;P2;SDS_P1;SDS_P2;PMS_P1;PMS_P2;Temp;Humidity;BMP_temperature;BMP_pressure;BME280_temperature;BME280_humidity;BME280_pressure;Samples;Min_cycle;Max_cycle;Signal;HPM_P1;HPM_P2
2021/03/04 00:00:01;;;;;;;59.25;30.30;;;9.60;99.90;;;;;;5123575;28;20159;-80
2021/03/04 00:02:27;;;;;;;55.72;30.60;;;9.60;99.90;;;;;;5122379;28;20572;-81
2021/03/04 00:05:17;;;;;;;56.27;30.57;;;9.60;99.90;;;;;;5124039;28;20177;-82
2021/03/04 00:07:51;;;;;;;59.95;30.75;;;9.50;99.90;;;;;;5122796;28;20424;-80
2021/03/04 00:10:32;;;;;;;62.33;32.05;;;9.50;99.90;;;;;;5122227;28;20805;-78
2021/03/04 00:12:59;;;;;;;63.20;33.10;;;9.50;99.90;;;;;;5123704;28;20186;-80
2021/03/04 00:15:36;;;;;;;69.28;32.05;;;9.40;99.90;;;;;;5122065;28;20261;-81
2021/03/04 00:18:13;;;;;;;56.33;31.40;;;9.40;99.90;;;;;;5106239;28;20179;-80
2021/03/04 00:20:57;;;;;;;;;;;;;;;;;;;;;
2021/03/04 00:23:45;;;;;;;55.10;32.45;;;9.40;99.90;;;;;;5126600;28;20245;-80
2021/03/04 00:26:22;;;;;;;59.65;31.63;;;9.30;99.90;;;;;;5124469;28;20637;-80
2021/03/04 00:28:54;;;;;;;65.32;32.65;;;9.30;99.90;;;;;;5123880;28;20617;-80
2021/03/04 00:31:22;;;;;;;63.88;33.30;;;9.30;99.90;;;;;;5118717;28;20222;-79
2021/03/04 00:33:55;;;;;;;62.45;32.40;;;9.30;99.90;;;;;;5119130;28;20201;-80
2021/03/04 00:36:23;;;;;;;62.33;35.17;;;9.20;99.90;;;;;;5118283;28;20173;-79
2021/03/04 00:38:49;;;;;;;66.97;35.22;;;9.20;99.90;;;;;;5118494;28;20159;-79
2021/03/04 00:41:14;;;;;;;86.97;36.80;;;9.20;99.90;;;;;;5117480;28;20186;-78
2021/03/04 00:43:50;;;;;;;80.17;34.67;;;9.20;99.90;;;;;;5116892;28;20178;-81
2021/03/04 00:46:51;;;;;;;64.45;32.67;;;9.20;99.90;;;;;;5101188;28;20251;-80
2021/03/04 00:49:29;;;;;;;70.53;35.30;;;9.20;99.90;;;;;;5119490;28;20249;-81
2021/03/04 00:51:55;;;;;;;65.28;31.60;;;9.20;99.90;;;;;;5117460;28;20194;-81
2021/03/04 00:54:29;;;;;;;59.13;31.27;;;9.10;99.90;;;;;;5117998;28;20194;-80
2021/03/04 00:57:04;;;;;;;74.97;33.28;;;9.00;99.90;;;;;;5117870;28;20421;-80
2021/03/04 00:59:43;;;;;;;59.17;30.67;;;8.90;99.90;;;;;;5119062;28;20226;-80
2021/03/04 01:02:34;;;;;;;56.15;31.48;;;8.80;99.90;;;;;;5117714;28;20186;-80
2021/03/04 01:05:42;;;;;;;;;;;;;;;;;;;;;
2021/03/04 01:08:18;;;;;;;68.80;30.02;;;8.80;99.90;;;;;;5118334;28;20237;-80
2021/03/04 01:10:57;;;;;;;57.00;31.23;;;8.80;99.90;;;;;;5119636;28;20247;-80
2021/03/04 01:13:26;;;;;;;56.15;29.88;;;8.70;99.90;;;;;;5121485;28;20289;-80
2021/03/04 01:16:05;;;;;;;58.72;30.33;;;8.80;99.90;;;;;;5119027;28;20199;-82
2021/03/04 01:18:44;;;;;;;68.80;31.25;;;8.80;99.90;;;;;;5116420;28;20174;-81
2021/03/04 01:21:25;;;;;;;60.83;29.15;;;8.80;99.90;;;;;;5117325;28;20218;-81
2021/03/04 01:27:19;;;;;;;59.45;31.45;;;8.80;99.90;;;;;;5120700;28;20173;-81
2021/03/04 01:30:05;;;;;;;;;;;;;;;;;;;;;
2021/03/04 01:32:37;;;;;;;62.95;31.05;;;8.80;99.90;;;;;;5120074;28;20281;-79
2021/03/04 01:35:08;;;;;;;55.80;29.85;;;8.70;99.90;;;;;;5117617;28;20194;-79
2021/03/04 01:37:54;;;;;;;53.65;28.67;;;8.60;99.90;;;;;;5130342;28;20159;-80
2021/03/04 01:43:42;;;;;;;;;;;;;;;;;;;;;
2021/03/04 01:46:16;;;;;;;65.68;32.45;;;8.50;99.90;;;;;;5135650;28;20147;-80
2021/03/04 01:49:20;;;;;;;68.15;32.42;;;8.40;99.90;;;;;;5116529;28;20174;-80
2021/03/04 01:51:53;;;;;;;63.85;32.63;;;8.20;99.90;;;;;;5117387;28;20198;-82
2021/03/04 01:54:24;;;;;;;63.75;31.23;;;8.20;99.90;;;;;;5118594;28;20210;-81
2021/03/04 01:56:53;;;;;;;64.50;32.72;;;8.20;99.90;;;;;;5118497;28;20177;-81
2021/03/04 01:59:31;;;;;;;62.92;31.55;;;8.10;99.90;;;;;;5117151;28;20174;-80
2021/03/04 02:02:00;;;;;;;61.05;33.42;;;8.10;99.90;;;;;;5116933;28;20672;-80
2021/03/04 02:04:30;;;;;;;62.40;32.58;;;8.10;99.90;;;;;;5121253;28;20181;-80
2021/03/04 02:07:20;;;;;;;65.22;31.58;;;8.20;99.90;;;;;;5124319;28;20166;-80
2021/03/04 02:10:00;;;;;;;64.72;33.05;;;8.20;99.90;;;;;;5117922;28;20700;-80
2021/03/04 02:12:52;;;;;;;60.10;31.95;;;8.30;99.90;;;;;;5118921;28;20193;-80
2021/03/04 02:15:31;;;;;;;57.83;32.83;;;8.30;99.90;;;;;;5118531;28;20222;-80
2021/03/04 02:18:01;;;;;;;74.35;35.20;;;8.30;99.90;;;;;;5116356;28;20606;-80
2021/03/04 02:20:49;;;;;;;80.55;37.53;;;8.30;99.90;;;;;;5119574;28;20177;-80
2021/03/04 02:23:36;;;;;;;80.32;37.42;;;8.40;99.90;;;;;;5125373;28;20175;-80
2021/03/04 02:26:23;;;;;;;68.63;33.47;;;8.40;99.90;;;;;;5128171;28;20163;-80
2021/03/04 02:28:51;;;;;;;73.45;38.60;;;8.30;99.90;;;;;;5117688;28;20261;-81
2021/03/04 02:31:18;;;;;;;61.13;32.70;;;8.40;99.90;;;;;;5118123;28;20221;-80
2021/03/04 02:33:46;;;;;;;78.78;34.15;;;8.30;99.90;;;;;;5099596;28;20202;-80
2021/03/04 02:36:12;;;;;;;78.85;39.50;;;8.30;99.90;;;;;;5119050;28;20197;-80
2021/03/04 02:38:38;;;;;;;77.07;37.87;;;8.30;99.90;;;;;;5099720;28;20637;-80
2021/03/04 02:41:05;;;;;;;66.10;38.13;;;8.30;99.90;;;;;;5117619;28;20187;-80
2021/03/04 02:43:31;;;;;;;69.65;34.90;;;8.20;99.90;;;;;;5116795;28;20415;-80
2021/03/04 02:45:58;;;;;;;72.00;37.92;;;8.20;99.90;;;;;;5117245;28;20261;-80
2021/03/04 02:48:25;;;;;;;69.82;36.42;;;8.10;99.90;;;;;;5116683;28;20189;-80
2021/03/04 02:50:52;;;;;;;73.97;36.00;;;8.10;99.90;;;;;;5117782;28;20210;-81
2021/03/04 02:53:19;;;;;;;75.43;37.35;;;8.10;99.90;;;;;;5116206;28;20685;-80
2021/03/04 02:55:45;;;;;;;65.30;36.83;;;8.00;99.90;;;;;;5117476;28;20182;-81
2021/03/04 02:58:13;;;;;;;73.93;36.93;;;8.00;99.90;;;;;;5116339;28;20167;-81
2021/03/04 03:00:39;;;;;;;70.70;37.97;;;8.00;99.90;;;;;;5115538;28;20519;-80
2021/03/04 03:03:12;;;;;;;68.60;35.65;;;8.10;99.90;;;;;;5098630;28;20175;-81
2021/03/04 03:05:40;;;;;;;78.22;40.65;;;8.20;99.90;;;;;;5116875;28;20166;-82
2021/03/04 03:08:07;;;;;;;78.65;37.88;;;8.10;99.90;;;;;;5116289;28;20174;-80
2021/03/04 03:10:33;;;;;;;71.10;38.40;;;8.00;99.90;;;;;;5115008;28;20187;-80
2021/03/04 03:13:01;;;;;;;84.53;37.92;;;7.90;99.90;;;;;;5116379;28;20183;-81
2021/03/04 03:15:29;;;;;;;74.57;38.60;;;7.90;99.90;;;;;;5115631;28;20198;-80
2021/03/04 03:17:55;;;;;;;74.05;39.70;;;7.80;99.90;;;;;;5117071;28;20656;-81
2021/03/04 03:20:23;;;;;;;64.00;35.70;;;7.90;99.90;;;;;;5117411;28;20171;-80
2021/03/04 03:22:51;;;;;;;77.38;35.47;;;7.90;99.90;;;;;;5121947;28;20443;-80
2021/03/04 03:25:17;;;;;;;75.68;38.53;;;7.90;99.90;;;;;;5121096;28;20202;-80
2021/03/04 03:27:44;;;;;;;74.90;39.28;;;7.80;99.90;;;;;;5120743;28;20162;-80
2021/03/04 03:30:19;;;;;;;76.25;38.05;;;7.80;99.90;;;;;;5118998;28;20514;-79
2021/03/04 03:32:52;;;;;;;78.53;38.83;;;7.70;99.90;;;;;;5117132;28;20208;-79
2021/03/04 03:35:18;;;;;;;76.80;38.80;;;7.70;99.90;;;;;;5118884;28;20234;-79
2021/03/04 03:37:45;;;;;;;71.25;37.65;;;7.90;99.90;;;;;;5118435;28;20239;-80
2021/03/04 03:40:11;;;;;;;83.40;40.63;;;7.80;99.90;;;;;;5117961;28;20234;-80
2021/03/04 03:42:40;;;;;;;68.75;37.83;;;7.80;99.90;;;;;;5118373;28;20206;-80
2021/03/04 03:45:10;;;;;;;65.93;33.88;;;7.60;99.90;;;;;;5117432;28;20186;-79
2021/03/04 03:47:36;;;;;;;73.65;37.45;;;7.50;99.90;;;;;;5116480;28;20177;-81
2021/03/04 03:50:03;;;;;;;83.05;38.97;;;7.60;99.90;;;;;;5120507;28;20194;-81
2021/03/04 03:52:34;;;;;;;77.38;35.88;;;7.60;99.90;;;;;;5124011;28;20186;-80
2021/03/04 03:55:02;;;;;;;72.85;36.15;;;6.50;99.90;;;;;;5121188;28;20324;-80
2021/03/04 03:57:30;;;;;;;71.60;33.13;;;6.50;99.90;;;;;;5118238;28;20182;-81
2021/03/04 03:59:56;;;;;;;69.47;33.53;;;6.70;99.90;;;;;;5101370;28;20179;-80
2021/03/04 04:02:23;;;;;;;67.70;33.05;;;6.90;99.90;;;;;;5119199;28;20193;-81
2021/03/04 04:04:49;;;;;;;68.70;33.88;;;7.10;99.90;;;;;;5118074;28;20175;-80
2021/03/04 04:07:16;;;;;;;59.42;31.30;;;7.40;99.90;;;;;;5120001;28;20167;-80
2021/03/04 04:09:42;;;;;;;68.20;33.08;;;7.40;99.90;;;;;;5119048;28;20238;-80
2021/03/04 04:12:08;;;;;;;59.83;32.13;;;7.50;99.90;;;;;;5119910;28;20186;-80
2021/03/04 04:14:34;;;;;;;65.20;33.85;;;7.60;99.90;;;;;;5119716;28;20256;-80
2021/03/04 04:17:00;;;;;;;60.65;30.10;;;7.60;99.90;;;;;;5119310;28;20219;-80
2021/03/04 04:19:26;;;;;;;62.45;31.50;;;7.60;99.90;;;;;;5118778;28;20178;-81
2021/03/04 04:21:52;;;;;;;71.35;34.55;;;7.50;99.90;;;;;;5118460;28;20240;-80
2021/03/04 04:24:18;;;;;;;61.80;31.83;;;7.00;99.90;;;;;;5120575;27;20167;-80
2021/03/04 04:26:43;;;;;;;66.30;30.77;;;6.80;99.90;;;;;;5118798;28;20175;-79
2021/03/04 04:29:09;;;;;;;59.93;30.80;;;6.80;99.90;;;;;;5118385;28;20227;-80
2021/03/04 04:31:35;;;;;;;58.67;28.43;;;6.90;99.90;;;;;;5098613;28;20553;-80
2021/03/04 04:34:01;;;;;;;55.90;28.92;;;6.90;99.90;;;;;;5115776;28;20206;-80
2021/03/04 04:36:26;;;;;;;58.60;29.57;;;6.60;99.90;;;;;;5098094;28;20174;-80
2021/03/04 04:38:52;;;;;;;58.33;29.13;;;6.30;99.90;;;;;;5116274;28;20163;-79
2021/03/04 04:41:17;;;;;;;56.37;28.47;;;6.40;99.90;;;;;;5119719;28;20195;-78
2021/03/04 04:43:43;;;;;;;67.40;29.87;;;6.60;99.90;;;;;;5104867;28;20186;-81
2021/03/04 04:46:09;;;;;;;63.53;26.73;;;6.80;99.90;;;;;;5132841;28;20261;-80
2021/03/04 04:48:34;;;;;;;43.30;23.45;;;6.70;99.90;;;;;;5119386;28;20539;-79
2021/03/04 04:51:00;;;;;;;49.70;24.27;;;6.80;99.90;;;;;;5121125;28;20194;-80
2021/03/04 04:53:25;;;;;;;49.73;23.87;;;6.70;99.90;;;;;;5119334;28;20674;-80
2021/03/04 04:55:51;;;;;;;44.47;22.37;;;6.60;99.90;;;;;;5100093;28;20672;-81
2021/03/04 04:58:16;;;;;;;59.20;24.37;;;6.50;99.90;;;;;;5085365;28;20191;-80
2021/03/04 05:00:42;;;;;;;54.73;24.57;;;6.80;99.90;;;;;;5118670;28;20202;-80
2021/03/04 05:03:07;;;;;;;54.37;27.20;;;7.10;99.90;;;;;;5117879;28;20562;-80
2021/03/04 05:05:33;;;;;;;57.03;26.83;;;7.10;99.90;;;;;;5118179;28;20718;-79
2021/03/04 05:07:58;;;;;;;62.50;27.30;;;7.30;99.90;;;;;;5116085;28;20812;-79
2021/03/04 05:10:24;;;;;;;56.57;25.17;;;7.30;99.90;;;;;;5115403;28;20175;-79
2021/03/04 05:12:56;;;;;;;52.03;25.57;;;7.30;99.90;;;;;;5115783;28;20183;-79
2021/03/04 05:15:21;;;;;;;58.97;28.02;;;7.30;99.90;;;;;;5116960;28;20269;-81
2021/03/04 05:17:47;;;;;;;56.27;26.47;;;7.30;99.90;;;;;;5099232;28;20688;-80
2021/03/04 05:20:13;;;;;;;52.47;25.93;;;7.40;99.90;;;;;;5117782;28;20171;-80
2021/03/04 05:22:38;;;;;;;54.83;26.15;;;7.40;99.90;;;;;;5115925;28;20175;-79
2021/03/04 05:25:05;;;;;;;66.30;26.00;;;7.40;99.90;;;;;;5115866;28;20257;-80
2021/03/04 05:27:30;;;;;;;59.80;25.55;;;7.30;99.90;;;;;;5114988;28;20185;-80
2021/03/04 05:29:58;;;;;;;49.33;24.00;;;7.30;99.90;;;;;;5117725;28;20171;-81
2021/03/04 05:32:24;;;;;;;50.83;23.65;;;7.40;99.90;;;;;;5115294;28;20222;-80
2021/03/04 05:34:50;;;;;;;52.90;22.65;;;6.80;99.90;;;;;;5100032;28;20202;-80
2021/03/04 05:37:16;;;;;;;58.63;24.53;;;6.70;99.90;;;;;;5120726;28;20167;-79
2021/03/04 05:39:41;;;;;;;51.07;24.20;;;6.90;99.90;;;;;;5117215;28;20250;-79
2021/03/04 05:42:08;;;;;;;56.97;23.90;;;6.70;99.90;;;;;;5099572;28;20430;-78
2021/03/04 05:44:36;;;;;;;58.85;27.55;;;6.80;99.90;;;;;;5085895;28;20191;-81
2021/03/04 05:47:04;;;;;;;58.80;23.63;;;6.90;99.90;;;;;;5096440;28;20657;-79
2021/03/04 05:49:30;;;;;;;50.97;25.23;;;7.00;99.90;;;;;;5099451;28;20233;-79
2021/03/04 05:51:58;;;;;;;48.38;21.73;;;6.80;99.90;;;;;;5112690;28;20218;-79
2021/03/04 05:54:27;;;;;;;52.75;22.70;;;6.70;99.90;;;;;;5116611;28;20225;-80
2021/03/04 05:56:53;;;;;;;53.20;24.15;;;6.90;99.90;;;;;;5093840;28;20259;-80
2021/03/04 05:59:19;;;;;;;55.55;22.90;;;7.00;99.90;;;;;;5072747;28;20168;-79
2021/03/04 06:01:45;;;;;;;45.22;22.10;;;6.90;99.90;;;;;;5076747;28;20203;-79
2021/03/04 06:04:11;;;;;;;49.43;20.80;;;6.80;99.90;;;;;;5089829;28;20180;-79
2021/03/04 06:06:37;;;;;;;54.33;19.60;;;6.30;99.90;;;;;;5081315;28;20175;-79
2021/03/04 06:09:03;;;;;;;43.13;20.17;;;6.00;99.90;;;;;;5077475;28;20187;-79
2021/03/04 06:11:29;;;;;;;34.30;13.97;;;5.80;99.90;;;;;;5090794;28;20195;-82
2021/03/04 06:13:57;;;;;;;41.23;18.13;;;6.00;99.90;;;;;;5093516;28;20257;-78
2021/03/04 06:16:25;;;;;;;40.58;19.52;;;6.60;99.90;;;;;;5079108;28;20171;-76
2021/03/04 06:18:51;;;;;;;40.03;18.73;;;6.20;99.90;;;;;;5079919;28;20262;-80
2021/03/04 06:21:24;;;;;;;45.22;18.98;;;5.90;99.90;;;;;;5076567;28;20229;-80
2021/03/04 06:23:50;;;;;;;45.47;21.23;;;5.60;99.90;;;;;;5078521;28;20180;-79
2021/03/04 06:26:24;;;;;;;44.72;19.85;;;5.90;99.90;;;;;;5074111;28;20182;-79
2021/03/04 06:28:49;;;;;;;46.83;21.30;;;5.70;99.90;;;;;;5088108;28;20179;-78
2021/03/04 06:31:22;;;;;;;50.63;21.23;;;5.70;99.90;;;;;;5070390;28;20199;-77
2021/03/04 06:33:47;;;;;;;30.70;15.75;;;5.90;99.90;;;;;;5082982;28;20233;-78
2021/03/04 06:36:15;;;;;;;48.50;21.37;;;6.10;99.90;;;;;;5078887;28;20817;-78
2021/03/04 06:38:41;;;;;;;47.45;16.88;;;6.30;99.90;;;;;;5072614;28;20472;-77
2021/03/04 06:41:20;;;;;;;55.75;22.10;;;6.40;99.90;;;;;;5070800;28;20226;-78
2021/03/04 06:43:46;;;;;;;46.20;18.13;;;6.40;99.90;;;;;;5072433;28;20180;-78
2021/03/04 06:46:12;;;;;;;44.50;18.87;;;6.10;99.90;;;;;;5072821;28;20233;-78
2021/03/04 06:48:37;;;;;;;46.97;18.93;;;5.80;99.90;;;;;;5084150;28;20198;-78
2021/03/04 06:51:05;;;;;;;37.53;17.63;;;5.80;99.90;;;;;;5072408;28;20470;-77
2021/03/04 06:53:31;;;;;;;43.58;18.73;;;5.80;99.90;;;;;;5082576;28;20196;-78
2021/03/04 06:56:05;;;;;;;47.70;18.92;;;5.90;99.90;;;;;;5090515;28;20213;-76
2021/03/04 06:58:35;;;;;;;36.60;17.00;;;6.10;99.90;;;;;;5075327;28;20236;-76
2021/03/04 07:01:08;;;;;;;47.92;19.33;;;6.30;99.90;;;;;;5063240;28;20203;-77
2021/03/04 07:03:53;;;;;;;53.10;19.48;;;6.50;99.90;;;;;;5092232;28;20244;-77
2021/03/04 07:06:21;;;;;;;38.42;17.35;;;6.60;99.90;;;;;;5096432;28;20167;-78
2021/03/04 07:08:48;;;;;;;38.67;17.23;;;6.50;99.90;;;;;;5063258;28;20180;-78
2021/03/04 07:11:22;;;;;;;37.13;18.00;;;6.50;99.90;;;;;;5078995;28;20550;-77
2021/03/04 07:13:48;;;;;;;38.55;18.83;;;6.40;99.90;;;;;;5088375;28;20550;-77
2021/03/04 07:16:24;;;;;;;36.22;18.48;;;6.40;99.90;;;;;;5074428;28;20180;-78
2021/03/04 07:18:56;;;;;;;34.55;16.27;;;6.30;99.90;;;;;;5078210;28;20184;-77
2021/03/04 07:21:25;;;;;;;39.20;17.38;;;6.30;99.90;;;;;;5093251;28;20211;-77
2021/03/04 07:23:51;;;;;;;44.00;17.92;;;6.50;99.90;;;;;;5095094;28;20206;-77
2021/03/04 07:26:18;;;;;;;52.28;20.13;;;6.70;99.90;;;;;;5086246;28;20184;-77
2021/03/04 07:28:46;;;;;;;43.92;18.20;;;6.80;99.90;;;;;;5075820;28;20176;-77
2021/03/04 07:31:14;;;;;;;38.33;17.90;;;6.80;99.90;;;;;;5092214;28;20562;-77
2021/03/04 07:33:44;;;;;;;38.88;16.60;;;6.80;99.90;;;;;;5087734;28;20223;-78
2021/03/04 07:36:11;;;;;;;34.92;16.67;;;6.70;99.90;;;;;;5083401;28;20172;-78
2021/03/04 07:38:38;;;;;;;33.33;17.15;;;6.90;99.90;;;;;;5079202;28;20817;-78
2021/03/04 07:41:15;;;;;;;43.90;19.38;;;6.80;99.90;;;;;;5086022;28;20451;-81
2021/03/04 07:43:55;;;;;;;48.42;19.42;;;6.80;99.90;;;;;;5087320;28;20244;-79
2021/03/04 07:46:36;;;;;;;45.30;19.00;;;6.90;99.90;;;;;;5091455;28;20171;-80
2021/03/04 07:49:07;;;;;;;39.38;19.42;;;7.00;99.90;;;;;;5078636;28;20179;-79
2021/03/04 07:51:46;;;;;;;41.60;18.05;;;7.00;99.90;;;;;;5084685;28;20187;-79
2021/03/04 07:54:13;;;;;;;39.22;16.60;;;7.00;99.90;;;;;;5086820;28;20239;-79
2021/03/04 07:56:42;;;;;;;42.90;16.52;;;7.00;99.90;;;;;;5099107;28;20243;-77
2021/03/04 07:59:12;;;;;;;45.55;17.23;;;6.40;99.90;;;;;;5113073;28;20191;-78
2021/03/04 08:01:40;;;;;;;45.58;16.42;;;6.20;99.90;;;;;;5111926;28;20237;-78
2021/03/04 08:04:06;;;;;;;43.88;18.48;;;6.00;99.90;;;;;;5114068;28;20171;-79
2021/03/04 08:06:42;;;;;;;34.23;16.87;;;6.20;99.90;;;;;;5057130;28;20234;-79
2021/03/04 08:09:08;;;;;;;36.50;16.17;;;6.50;99.90;;;;;;5090919;28;20182;-80
2021/03/04 08:11:35;;;;;;;37.90;17.53;;;6.70;99.90;;;;;;5096687;28;20195;-79
2021/03/04 08:14:16;;;;;;;37.78;17.33;;;6.80;99.90;;;;;;5081415;28;20686;-80
2021/03/04 08:16:42;;;;;;;38.45;15.88;;;6.90;99.90;;;;;;5089249;28;20167;-79
2021/03/04 08:19:08;;;;;;;35.85;16.75;;;6.90;99.90;;;;;;5070726;28;20172;-79
2021/03/04 08:21:41;;;;;;;39.90;18.53;;;7.00;99.90;;;;;;5079993;28;20222;-80
2021/03/04 08:24:16;;;;;;;38.72;17.17;;;7.00;99.90;;;;;;5075247;28;20178;-81
2021/03/04 08:26:57;;;;;;;44.50;19.23;;;6.80;99.90;;;;;;5076737;28;20168;-80
2021/03/04 08:29:23;;;;;;;37.53;14.77;;;6.90;99.90;;;;;;5074160;28;20187;-76
2021/03/04 08:31:48;;;;;;;30.92;15.27;;;7.20;99.90;;;;;;5075144;28;20196;-78
2021/03/04 08:34:19;;;;;;;37.87;17.23;;;7.40;99.90;;;;;;5074695;28;20250;-79
2021/03/04 12:08:42;;;;;;;17.00;7.38;;;5.20;99.90;;;;;;5872038;23;20226;-82
2021/03/04 12:11:07;;;;;;;14.37;7.40;;;5.20;99.90;;;;;;5020079;28;20566;-81
2021/03/04 12:13:34;;;;;;;13.40;6.73;;;5.20;99.90;;;;;;5001454;28;20209;-82
2021/03/04 12:16:05;;;;;;;16.50;8.07;;;5.60;99.90;;;;;;5001993;28;20182;-82
2021/03/04 12:18:31;;;;;;;18.80;8.43;;;5.90;99.90;;;;;;4990854;28;20202;-81
2021/03/04 12:20:57;;;;;;;18.40;8.52;;;6.20;99.90;;;;;;5018534;28;20197;-82
2021/03/04 12:23:23;;;;;;;21.03;9.27;;;6.30;99.90;;;;;;5016230;28;20193;-81
2021/03/04 12:25:49;;;;;;;12.10;7.67;;;6.40;99.90;;;;;;5012815;28;20933;-80
2021/03/04 12:28:14;;;;;;;17.70;7.80;;;6.50;99.90;;;;;;5014593;28;20289;-80
2021/03/04 12:30:40;;;;;;;22.00;8.93;;;6.50;99.90;;;;;;5015191;28;20182;-82
2021/03/04 12:33:06;;;;;;;15.37;8.53;;;6.00;99.90;;;;;;5019406;28;20178;-79
2021/03/04 12:35:31;;;;;;;14.83;8.30;;;6.10;99.90;;;;;;5017420;28;20218;-81
2021/03/04 12:37:57;;;;;;;15.03;7.77;;;6.00;99.90;;;;;;5016730;28;20201;-80
2021/03/04 12:40:25;;;;;;;12.80;8.50;;;5.90;99.90;;;;;;5017505;28;20683;-80
2021/03/04 12:42:51;;;;;;;14.60;8.05;;;5.40;99.90;;;;;;5019476;28;20210;-81
2021/03/04 12:45:17;;;;;;;17.10;7.90;;;5.00;99.90;;;;;;4997080;28;20607;-81
2021/03/04 12:47:42;;;;;;;13.67;8.07;;;5.20;99.90;;;;;;5015603;28;20687;-81
2021/03/04 12:50:08;;;;;;;21.00;9.30;;;5.10;99.90;;;;;;5017619;28;20224;-82
2021/03/04 12:52:34;;;;;;;12.80;7.20;;;5.50;99.90;;;;;;4999476;28;20182;-81
2021/03/04 12:55:02;;;;;;;18.77;9.40;;;5.70;99.90;;;;;;5009942;28;20203;-80
2021/03/04 12:57:27;;;;;;;17.08;7.70;;;5.90;99.90;;;;;;4998504;28;20182;-83
2021/03/04 13:00:03;;;;;;;13.00;7.47;;;6.00;99.90;;;;;;5000154;28;20203;-82
2021/03/04 13:02:29;;;;;;;9.52;5.63;;;6.00;99.90;;;;;;5003909;28;20593;-81
2021/03/04 13:04:55;;;;;;;11.60;6.30;;;6.00;99.90;;;;;;4997034;28;20175;-81
2021/03/04 13:07:20;;;;;;;18.40;6.70;;;6.00;99.90;;;;;;4989355;28;20212;-82
2021/03/04 13:09:47;;;;;;;7.80;6.33;;;6.00;99.90;;;;;;4997397;28;20548;-82
2021/03/04 13:12:13;;;;;;;9.88;6.57;;;5.70;99.90;;;;;;5009284;28;20174;-82
2021/03/04 13:14:40;;;;;;;12.83;5.20;;;5.60;99.90;;;;;;5015197;28;20221;-83
2021/03/04 13:17:06;;;;;;;8.35;5.00;;;5.70;99.90;;;;;;5018520;28;20174;-84
2021/03/04 13:19:31;;;;;;;9.23;5.63;;;5.80;99.90;;;;;;5016002;28;20198;-81
2021/03/04 13:21:58;;;;;;;10.47;5.27;;;5.80;99.90;;;;;;5014561;28;20198;-81
2021/03/04 13:24:23;;;;;;;12.20;4.75;;;5.60;99.90;;;;;;5016378;28;20174;-83
2021/03/04 13:26:49;;;;;;;11.33;6.00;;;5.80;99.90;;;;;;4982499;28;20178;-80
2021/03/04 13:29:15;;;;;;;10.00;5.50;;;5.90;99.90;;;;;;5015318;28;20196;-81
2021/03/04 13:31:40;;;;;;;8.30;4.60;;;6.00;99.90;;;;;;4998609;28;20202;-81
2021/03/04 13:34:06;;;;;;;7.80;4.10;;;6.20;99.90;;;;;;4997918;28;20687;-82
2021/03/04 13:36:33;;;;;;;7.57;4.73;;;6.20;99.90;;;;;;5008099;28;20178;-80
2021/03/04 13:38:58;;;;;;;9.95;4.97;;;6.20;99.90;;;;;;5013911;28;20341;-80
2021/03/04 13:41:24;;;;;;;11.07;6.50;;;6.00;99.90;;;;;;5015705;28;20205;-80
2021/03/04 13:43:49;;;;;;;10.93;6.10;;;5.90;99.90;;;;;;4999725;28;20178;-81
2021/03/04 13:46:16;;;;;;;14.30;6.97;;;5.90;99.90;;;;;;5015506;28;20206;-82
2021/03/04 13:48:41;;;;;;;10.90;6.15;;;5.50;99.90;;;;;;5016769;28;20190;-79
2021/03/04 13:51:07;;;;;;;8.73;5.37;;;5.60;99.90;;;;;;5016216;28;20196;-80
2021/03/04 13:53:32;;;;;;;8.57;5.63;;;5.70;99.90;;;;;;4984933;28;20201;-81
2021/03/04 13:56:04;;;;;;;7.00;5.00;;;6.00;99.90;;;;;;5013135;28;20182;-79
2021/03/04 13:58:30;;;;;;;11.25;4.88;;;5.90;99.90;;;;;;5018305;28;20194;-79
2021/03/04 14:00:56;;;;;;;8.13;5.00;;;6.00;99.90;;;;;;4989775;28;20182;-80
2021/03/04 14:03:21;;;;;;;11.30;4.67;;;6.20;99.90;;;;;;5023189;28;20178;-79
2021/03/04 14:05:47;;;;;;;8.40;4.40;;;6.30;99.90;;;;;;5022196;28;20426;-79
2021/03/04 14:08:13;;;;;;;11.33;5.17;;;6.30;99.90;;;;;;4995481;28;20170;-79
2021/03/04 14:10:51;;;;;;;8.20;3.90;;;6.40;99.90;;;;;;5002579;28;20679;-84
2021/03/04 14:13:16;;;;;;;8.88;6.05;;;6.20;99.90;;;;;;5029345;28;20212;-78
2021/03/04 14:15:42;;;;;;;7.38;4.82;;;6.10;99.90;;;;;;5033082;28;20216;-79
2021/03/04 14:18:08;;;;;;;12.67;5.70;;;5.80;99.90;;;;;;5035846;28;20190;-79
2021/03/04 14:20:34;;;;;;;8.30;4.97;;;6.00;99.90;;;;;;5035371;28;20174;-81
2021/03/04 14:23:00;;;;;;;11.37;5.90;;;6.20;99.90;;;;;;5009700;28;20488;-80
2021/03/04 14:25:25;;;;;;;12.20;5.83;;;6.20;99.90;;;;;;5022357;28;20459;-78
2021/03/04 14:27:54;;;;;;;7.47;5.20;;;6.20;99.90;;;;;;5016047;28;20186;-81
2021/03/04 14:30:20;;;;;;;10.43;4.38;;;6.30;99.90;;;;;;5016077;28;20198;-80
2021/03/04 14:32:45;;;;;;;7.87;4.63;;;6.10;99.90;;;;;;5012729;28;20178;-80
2021/03/04 14:35:11;;;;;;;7.33;4.60;;;6.10;99.90;;;;;;5022915;28;20277;-82
2021/03/04 14:37:40;;;;;;;8.15;4.38;;;6.10;99.90;;;;;;5023915;28;20182;-82
2021/03/04 14:40:07;;;;;;;8.10;4.78;;;6.20;99.90;;;;;;4990660;28;20224;-82
2021/03/04 14:42:33;;;;;;;10.13;5.13;;;6.40;99.90;;;;;;5024421;28;20201;-82
2021/03/04 14:44:59;;;;;;;13.27;5.53;;;6.50;99.90;;;;;;4997102;28;20261;-80
2021/03/04 14:47:27;;;;;;;7.73;5.07;;;6.60;99.90;;;;;;5015824;28;20197;-85
2021/03/04 14:49:53;;;;;;;8.13;5.20;;;6.70;99.90;;;;;;5017344;28;20198;-81
2021/03/04 14:52:19;;;;;;;9.23;4.73;;;6.70;99.90;;;;;;5016426;28;20189;-82
2021/03/04 14:54:45;;;;;;;9.90;5.47;;;6.70;99.90;;;;;;5017000;28;20202;-82
2021/03/04 14:57:11;;;;;;;8.40;4.53;;;6.60;99.90;;;;;;5002266;28;20219;-81
2021/03/04 14:59:36;;;;;;;7.43;5.20;;;6.70;99.90;;;;;;4996291;28;20744;-82
2021/03/04 15:02:02;;;;;;;7.83;4.17;;;6.70;99.90;;;;;;4962522;28;20194;-81
2021/03/04 15:04:31;;;;;;;17.27;5.60;;;6.70;99.90;;;;;;5012615;28;20762;-83
2021/03/04 15:06:59;;;;;;;7.82;4.70;;;6.80;99.90;;;;;;5015293;28;20197;-82
2021/03/04 15:09:24;;;;;;;6.82;4.40;;;6.80;99.90;;;;;;5014019;28;20218;-81
2021/03/04 15:11:50;;;;;;;10.23;5.30;;;6.80;99.90;;;;;;5015813;28;20170;-82
2021/03/04 15:14:15;;;;;;;10.80;4.40;;;6.80;99.90;;;;;;4998994;28;20202;-81
2021/03/04 15:16:41;;;;;;;6.57;3.73;;;6.80;99.90;;;;;;5020180;28;20225;-81
2021/03/04 15:19:07;;;;;;;8.33;5.80;;;6.90;99.90;;;;;;5006795;28;20202;-81
2021/03/04 15:21:33;;;;;;;8.50;3.80;;;6.80;99.90;;;;;;5002995;28;20186;-82
2021/03/04 15:23:59;;;;;;;10.63;4.90;;;6.80;99.90;;;;;;5021236;28;20210;-81
2021/03/04 15:26:28;;;;;;;7.03;3.63;;;6.90;99.90;;;;;;5023388;28;20186;-81
2021/03/04 15:28:53;;;;;;;7.60;4.47;;;6.90;99.90;;;;;;5021787;28;20217;-81
2021/03/04 15:31:19;;;;;;;10.10;4.40;;;6.90;99.90;;;;;;5022610;28;20174;-80
2021/03/04 15:33:44;;;;;;;5.40;3.57;;;6.80;99.90;;;;;;5021466;28;20209;-81
2021/03/04 15:36:10;;;;;;;7.47;3.93;;;6.70;99.90;;;;;;5005330;28;20178;-81
2021/03/04 15:38:36;;;;;;;7.33;4.03;;;6.70;99.90;;;;;;5006417;28;20289;-80
2021/03/04 15:41:02;;;;;;;7.73;3.53;;;6.80;99.90;;;;;;5022719;28;20185;-80
2021/03/04 15:43:28;;;;;;;7.65;4.53;;;6.80;99.90;;;;;;5021341;28;20190;-81
2021/03/04 15:45:53;;;;;;;7.13;4.33;;;6.70;99.90;;;;;;5021678;28;20193;-80
2021/03/04 15:48:19;;;;;;;9.63;5.57;;;6.70;99.90;;;;;;5004766;28;20174;-80
2021/03/04 15:50:45;;;;;;;9.50;5.30;;;6.70;99.90;;;;;;5022875;28;20250;-81
2021/03/04 15:53:10;;;;;;;9.27;5.90;;;6.70;99.90;;;;;;5005454;28;20178;-81
2021/03/04 15:55:40;;;;;;;10.90;6.07;;;6.80;99.90;;;;;;5022578;28;20202;-81
2021/03/04 15:58:06;;;;;;;10.10;6.70;;;6.80;99.90;;;;;;5022778;28;20174;-81
2021/03/04 16:00:32;;;;;;;10.73;6.50;;;6.80;99.90;;;;;;5023053;28;20213;-81
2021/03/04 16:02:57;;;;;;;13.43;5.63;;;6.40;99.90;;;;;;5004573;28;20178;-82
2021/03/04 16:05:23;;;;;;;9.63;5.90;;;6.40;99.90;;;;;;5021231;28;20429;-82
2021/03/04 16:07:48;;;;;;;9.80;6.47;;;6.40;99.90;;;;;;5003296;28;20457;-81
2021/03/04 16:10:14;;;;;;;11.37;5.43;;;6.30;99.90;;;;;;5002155;28;20221;-81
2021/03/04 16:12:40;;;;;;;10.10;5.90;;;6.20;99.90;;;;;;5025311;28;20182;-81
2021/03/04 16:15:06;;;;;;;10.70;6.33;;;6.30;99.90;;;;;;5026074;28;20202;-80
2021/03/04 16:17:32;;;;;;;10.50;5.65;;;6.20;99.90;;;;;;5004811;28;20549;-82
2021/03/04 16:19:57;;;;;;;7.53;5.30;;;6.30;99.90;;;;;;5020843;28;20186;-82
2021/03/04 16:22:23;;;;;;;11.40;6.07;;;6.30;99.90;;;;;;5019204;28;20198;-84
2021/03/04 16:24:50;;;;;;;10.57;4.90;;;6.20;99.90;;;;;;5017672;28;20174;-80
2021/03/04 16:27:16;;;;;;;16.45;7.40;;;6.10;99.90;;;;;;5002009;28;20178;-81
2021/03/04 16:29:42;;;;;;;12.10;6.40;;;6.30;99.90;;;;;;5018552;28;20286;-81
2021/03/04 16:32:08;;;;;;;13.25;6.00;;;6.40;99.90;;;;;;5019115;28;20687;-82